Time;durP1;ratioP1;P1;durP2;ratioP2;P2;SDS_P1;SDS_P2;PMS_P1;PMS_P2;Temp;Humidity;BMP_temperature;BMP_pressure;BME280_temperature;BME280_humidity;BME280_pressure;Samples;Min_cycle;Max_cycle;Signal;HPM_P1;HPM_P2
2022/06/07 00:00:26;;;;;;;13.60;12.57;;;14.40;99.90;;;;;;5096711;28;20432;-79
2022/06/07 00:02:54;;;;;;;14.40;13.40;;;14.40;99.90;;;;;;5094502;28;20492;-79
2022/06/07 00:05:24;;;;;;;14.23;13.23;;;14.40;99.90;;;;;;5094552;28;20461;-80
2022/06/07 00:07:54;;;;;;;13.90;12.90;;;14.40;99.90;;;;;;5094781;28;20496;-79
2022/06/07 00:10:23;;;;;;;15.50;14.50;;;14.40;99.90;;;;;;5094600;28;20448;-80
2022/06/07 00:12:52;;;;;;;14.30;13.40;;;14.40;99.90;;;;;;5096126;28;20519;-79
2022/06/07 00:15:21;;;;;;;14.70;13.70;;;14.50;99.90;;;;;;5095558;28;20906;-81
2022/06/07 00:17:50;;;;;;;16.13;15.03;;;14.50;99.90;;;;;;5094339;28;20455;-79
2022/06/07 00:20:18;;;;;;;15.03;13.73;;;14.50;99.90;;;;;;5094780;28;20437;-78
2022/06/07 00:22:48;;;;;;;15.37;14.20;;;14.50;99.90;;;;;;5094974;28;20459;-80
2022/06/07 00:25:17;;;;;;;14.43;13.40;;;14.50;99.90;;;;;;5095690;28;20472;-81
2022/06/07 00:27:45;;;;;;;15.43;14.33;;;14.40;99.90;;;;;;5097602;28;20464;-82
2022/06/07 00:30:14;;;;;;;16.10;15.00;;;14.40;99.90;;;;;;5097115;28;20856;-81
2022/06/07 00:32:44;;;;;;;16.80;15.50;;;14.40;99.90;;;;;;5096385;28;20440;-82
2022/06/07 00:35:13;;;;;;;17.60;16.40;;;14.40;99.90;;;;;;5096069;28;20471;-82
2022/06/07 00:37:42;;;;;;;17.33;16.03;;;14.40;99.90;;;;;;5095936;28;20454;-81
2022/06/07 00:40:13;;;;;;;17.60;16.40;;;14.40;99.90;;;;;;5095449;28;20506;-81
2022/06/07 00:42:42;;;;;;;18.20;17.00;;;14.40;99.90;;;;;;5096080;28;20448;-81
2022/06/07 00:45:14;;;;;;;17.80;16.50;;;14.40;99.90;;;;;;5095314;28;20899;-81
2022/06/07 00:47:43;;;;;;;17.77;16.47;;;14.40;99.90;;;;;;5095057;28;20488;-81
2022/06/07 00:50:18;;;;;;;19.33;17.97;;;14.40;99.90;;;;;;5095233;28;20444;-79
2022/06/07 00:52:46;;;;;;;21.07;19.47;;;14.40;99.90;;;;;;5096357;28;20840;-81
2022/06/07 00:55:17;;;;;;;19.57;18.17;;;14.30;99.90;;;;;;5094545;28;20453;-82
2022/06/07 00:57:52;;;;;;;18.87;17.47;;;14.30;99.90;;;;;;5095987;28;20422;-82
2022/06/07 01:00:31;;;;;;;20.93;19.33;;;14.30;99.90;;;;;;5095634;28;20482;-82
2022/06/07 01:03:01;;;;;;;19.97;18.57;;;14.30;99.90;;;;;;5096310;28;21008;-79
2022/06/07 01:05:30;;;;;;;20.33;18.93;;;14.30;99.90;;;;;;5095055;28;20816;-79
2022/06/07 01:11:09;;;;;;;21.47;20.00;;;14.30;99.90;;;;;;5033890;28;20462;-79
2022/06/07 01:13:38;;;;;;;21.27;19.87;;;14.30;99.90;;;;;;5017727;28;20451;-79
2022/06/07 01:16:16;;;;;;;19.77;18.47;;;14.30;99.90;;;;;;5061947;28;20470;-80
2022/06/07 01:18:46;;;;;;;19.20;17.90;;;14.30;99.90;;;;;;5094857;28;20433;-80
2022/06/07 01:21:31;;;;;;;19.10;17.70;;;14.30;99.90;;;;;;5094994;28;20470;-81
2022/06/07 01:24:01;;;;;;;20.33;18.93;;;14.20;99.90;;;;;;5094812;28;20471;-80
2022/06/07 01:26:39;;;;;;;19.30;18.00;;;14.20;99.90;;;;;;5094811;28;20535;-82
2022/06/07 01:29:10;;;;;;;18.17;16.87;;;14.20;99.90;;;;;;5094950;28;20494;-81
2022/06/07 01:31:39;;;;;;;19.07;17.77;;;14.20;99.90;;;;;;5095808;28;20990;-81
2022/06/07 01:34:09;;;;;;;17.30;16.00;;;14.20;99.90;;;;;;5098607;28;21010;-80
2022/06/07 01:36:38;;;;;;;20.83;19.43;;;14.20;99.90;;;;;;5098161;28;20535;-79
2022/06/07 01:41:56;;;;;;;16.87;15.70;;;14.20;99.90;;;;;;5099805;28;20426;-80
2022/06/07 01:44:37;;;;;;;18.80;17.60;;;14.20;99.90;;;;;;5098332;28;20596;-79
2022/06/07 01:47:09;;;;;;;17.10;16.00;;;14.20;99.90;;;;;;5098415;28;20440;-80
2022/06/07 01:49:42;;;;;;;16.83;15.73;;;14.20;99.90;;;;;;5098324;28;21059;-79
2022/06/07 01:52:14;;;;;;;16.07;14.97;;;14.10;99.90;;;;;;5097938;28;20474;-79
2022/06/07 01:54:45;;;;;;;18.23;17.00;;;14.10;99.90;;;;;;5098044;28;20478;-79
2022/06/07 01:57:14;;;;;;;16.87;15.67;;;14.10;99.90;;;;;;5098005;28;20972;-82
2022/06/07 01:59:42;;;;;;;16.10;15.10;;;14.10;99.90;;;;;;5098038;28;20490;-80
2022/06/07 02:02:18;;;;;;;18.03;16.77;;;14.10;99.90;;;;;;5097483;28;20451;-80
2022/06/07 02:04:47;;;;;;;16.50;15.50;;;14.10;99.90;;;;;;5097444;28;20996;-80
2022/06/07 02:07:19;;;;;;;16.37;15.17;;;14.00;99.90;;;;;;5098135;28;20459;-79
2022/06/07 02:09:52;;;;;;;15.90;14.80;;;14.10;99.90;;;;;;5097815;28;20799;-80
2022/06/07 02:12:21;;;;;;;14.23;13.23;;;14.00;99.90;;;;;;5097049;28;20447;-80
2022/06/07 02:14:50;;;;;;;15.00;14.00;;;14.00;99.90;;;;;;5096985;28;20468;-80
2022/06/07 02:17:19;;;;;;;15.37;14.27;;;14.00;99.90;;;;;;5097090;28;20501;-77
2022/06/07 02:20:03;;;;;;;15.83;14.73;;;14.00;99.90;;;;;;5096703;28;20436;-81
2022/06/07 02:22:33;;;;;;;15.17;14.10;;;14.00;99.90;;;;;;5098037;28;20451;-81
2022/06/07 02:25:01;;;;;;;16.83;15.63;;;14.00;99.90;;;;;;5098406;28;20513;-81
2022/06/07 02:27:29;;;;;;;16.20;15.10;;;14.00;99.90;;;;;;5096680;28;20451;-79
2022/06/07 02:29:58;;;;;;;16.80;15.60;;;14.00;99.90;;;;;;5096348;28;20468;-80
2022/06/07 02:32:30;;;;;;;17.67;16.47;;;13.90;99.90;;;;;;5096774;28;20450;-81
2022/06/07 02:35:01;;;;;;;16.13;15.03;;;13.90;99.90;;;;;;5098486;28;20547;-80
2022/06/07 02:37:30;;;;;;;15.30;14.20;;;13.90;99.90;;;;;;5098270;28;20416;-80
2022/06/07 02:39:59;;;;;;;19.30;18.07;;;13.90;99.90;;;;;;5096724;28;20799;-81
2022/06/07 02:42:29;;;;;;;15.83;14.73;;;13.90;99.90;;;;;;5097831;28;20535;-79
2022/06/07 02:44:58;;;;;;;16.63;15.53;;;13.90;99.90;;;;;;5095176;28;20471;-81
2022/06/07 02:47:27;;;;;;;15.87;14.67;;;13.90;99.90;;;;;;5096141;28;20957;-81
2022/06/07 02:50:01;;;;;;;16.00;14.80;;;13.90;99.90;;;;;;5097094;28;21000;-80
2022/06/07 02:52:32;;;;;;;16.30;15.20;;;13.90;99.90;;;;;;5096408;28;20483;-81
2022/06/07 02:55:11;;;;;;;15.07;14.00;;;13.90;99.90;;;;;;5096353;28;20464;-81
2022/06/07 02:57:40;;;;;;;16.93;15.83;;;13.90;99.90;;;;;;5096112;28;20471;-80
2022/06/07 03:00:14;;;;;;;15.77;14.67;;;13.90;99.90;;;;;;5096269;28;20941;-81
2022/06/07 03:02:43;;;;;;;17.17;16.07;;;13.80;99.90;;;;;;5095882;28;20813;-80
2022/06/07 03:05:13;;;;;;;18.67;17.37;;;13.80;99.90;;;;;;5095654;28;20591;-80
2022/06/07 03:07:49;;;;;;;17.23;16.00;;;13.80;99.90;;;;;;5095874;28;20440;-80
2022/06/07 03:10:20;;;;;;;17.17;15.87;;;13.80;99.90;;;;;;5096256;28;20464;-81
2022/06/07 03:12:50;;;;;;;18.17;16.93;;;13.80;99.90;;;;;;5096616;28;20456;-79
2022/06/07 03:15:22;;;;;;;18.20;17.00;;;13.80;99.90;;;;;;5095870;28;20509;-79
2022/06/07 03:17:51;;;;;;;15.23;14.13;;;13.80;99.90;;;;;;5095788;28;20829;-81
2022/06/07 03:20:23;;;;;;;16.97;15.77;;;13.80;99.90;;;;;;5096027;28;20436;-81
2022/06/07 03:22:52;;;;;;;19.50;18.20;;;13.80;99.90;;;;;;5095828;28;20444;-81
2022/06/07 03:25:24;;;;;;;19.90;18.47;;;13.80;99.90;;;;;;5095489;28;20471;-79
2022/06/07 03:28:00;;;;;;;18.07;16.77;;;13.80;99.90;;;;;;5095304;28;20440;-79
2022/06/07 03:30:28;;;;;;;19.07;17.70;;;13.80;99.90;;;;;;5095390;28;20471;-80
2022/06/07 03:32:58;;;;;;;18.33;17.10;;;13.80;99.90;;;;;;5095359;28;20541;-81
2022/06/07 03:35:29;;;;;;;21.00;19.60;;;13.80;99.90;;;;;;5095135;28;20461;-81
2022/06/07 03:38:01;;;;;;;20.03;18.57;;;13.80;99.90;;;;;;5095294;28;20440;-80
2022/06/07 03:40:44;;;;;;;21.67;20.17;;;13.80;99.90;;;;;;5094852;28;20453;-80
2022/06/07 03:43:16;;;;;;;22.10;20.60;;;13.80;99.90;;;;;;5095343;28;20439;-80
2022/06/07 03:45:45;;;;;;;19.97;18.57;;;13.80;99.90;;;;;;5094930;28;20498;-81
2022/06/07 03:48:16;;;;;;;22.70;21.07;;;13.80;99.90;;;;;;5094868;28;20808;-80
2022/06/07 03:50:46;;;;;;;23.70;21.80;;;13.80;99.90;;;;;;5095049;28;20468;-81
2022/06/07 03:53:15;;;;;;;21.03;19.53;;;13.80;99.90;;;;;;5094607;28;20455;-79
2022/06/07 03:55:47;;;;;;;24.63;22.73;;;13.80;99.90;;;;;;5094307;28;20556;-81
2022/06/07 03:58:18;;;;;;;25.00;23.03;;;13.80;99.90;;;;;;5095113;28;20531;-80
2022/06/07 04:00:47;;;;;;;25.93;24.20;;;13.90;99.90;;;;;;5094499;28;20467;-79
2022/06/07 04:03:15;;;;;;;30.00;28.00;;;13.90;99.90;;;;;;5094899;28;21026;-79
2022/06/07 04:05:45;;;;;;;35.47;33.57;;;13.90;99.90;;;;;;5094525;28;20472;-80
2022/06/07 04:08:17;;;;;;;39.90;37.70;;;13.90;99.90;;;;;;5095441;28;20813;-80
2022/06/07 04:10:53;;;;;;;47.63;45.23;;;13.90;99.90;;;;;;5094607;28;20464;-79
2022/06/07 04:13:28;;;;;;;46.77;44.47;;;13.90;99.90;;;;;;5094845;28;20444;-79
2022/06/07 04:15:59;;;;;;;45.93;43.43;;;13.90;99.90;;;;;;5094384;28;20501;-80
2022/06/07 04:18:28;;;;;;;49.57;47.07;;;13.90;99.90;;;;;;5095011;28;20976;-79
2022/06/07 04:20:59;;;;;;;49.10;46.67;;;13.90;99.90;;;;;;5094705;28;20964;-80
2022/06/07 04:23:30;;;;;;;44.97;42.47;;;14.00;99.90;;;;;;5094453;28;20447;-80
2022/06/07 04:26:06;;;;;;;44.47;41.90;;;14.00;99.90;;;;;;5094194;28;20476;-80
2022/06/07 04:28:36;;;;;;;44.80;42.40;;;14.00;99.90;;;;;;5094567;28;20948;-80
2022/06/07 04:31:09;;;;;;;48.20;45.50;;;14.00;99.90;;;;;;5094048;28;20464;-79
2022/06/07 04:33:38;;;;;;;41.07;38.67;;;14.00;99.90;;;;;;5094097;28;20432;-80
2022/06/07 04:36:12;;;;;;;40.20;37.90;;;14.00;99.90;;;;;;5094348;28;20448;-79
2022/06/07 04:38:42;;;;;;;42.50;40.00;;;14.00;99.90;;;;;;5094522;28;20445;-80
2022/06/07 04:41:15;;;;;;;42.37;39.87;;;14.00;99.90;;;;;;5094178;28;20432;-79
2022/06/07 04:43:54;;;;;;;28.10;26.10;;;14.00;99.90;;;;;;5095662;28;20495;-79
2022/06/07 04:46:25;;;;;;;27.57;25.37;;;14.10;99.90;;;;;;5093901;28;20489;-80
2022/06/07 04:48:57;;;;;;;26.87;24.53;;;14.00;99.90;;;;;;5094800;28;20460;-79
2022/06/07 04:51:30;;;;;;;25.20;23.17;;;14.10;99.90;;;;;;5094375;28;20536;-81
2022/06/07 04:54:12;;;;;;;24.47;22.37;;;14.10;99.90;;;;;;5093827;28;20997;-79
2022/06/07 04:56:47;;;;;;;27.10;24.83;;;14.10;99.90;;;;;;5094778;28;20819;-80
2022/06/07 04:59:16;;;;;;;22.67;20.63;;;14.10;99.90;;;;;;5093724;28;20472;-80
2022/06/07 05:01:54;;;;;;;26.47;24.07;;;14.10;99.90;;;;;;5094446;28;20882;-79
2022/06/07 05:04:26;;;;;;;25.37;23.27;;;14.20;99.90;;;;;;5093636;28;20894;-80
2022/06/07 05:06:58;;;;;;;26.17;23.67;;;14.20;99.90;;;;;;5093119;28;20490;-77
2022/06/07 05:09:38;;;;;;;27.40;24.70;;;14.20;99.90;;;;;;5094344;28;20479;-80
2022/06/07 05:12:13;;;;;;;28.50;25.70;;;14.20;99.90;;;;;;5094472;28;20869;-80
2022/06/07 05:14:47;;;;;;;29.10;26.50;;;14.20;99.90;;;;;;5095585;28;20467;-80
2022/06/07 05:17:21;;;;;;;31.23;28.37;;;14.20;99.90;;;;;;5095531;28;20439;-80
2022/06/07 05:19:55;;;;;;;30.50;27.57;;;14.20;99.90;;;;;;5094492;28;20432;-80
2022/06/07 05:22:24;;;;;;;31.60;28.60;;;14.20;99.90;;;;;;5094332;28;21018;-80
2022/06/07 05:24:55;;;;;;;32.97;30.07;;;14.20;99.90;;;;;;5094595;28;20989;-80
2022/06/07 05:27:38;;;;;;;34.77;31.50;;;14.30;99.90;;;;;;5094802;28;20452;-82
2022/06/07 05:30:12;;;;;;;38.13;34.63;;;14.30;99.90;;;;;;5095352;28;20476;-79
2022/06/07 05:32:47;;;;;;;38.43;35.13;;;14.30;99.90;;;;;;5095121;28;20515;-79
2022/06/07 05:35:23;;;;;;;37.80;34.37;;;14.30;99.90;;;;;;5095882;28;20472;-79
2022/06/07 05:38:04;;;;;;;38.50;34.80;;;14.40;99.90;;;;;;5094298;28;20444;-78
2022/06/07 05:40:36;;;;;;;33.83;30.73;;;14.40;99.90;;;;;;5093960;28;20444;-78
2022/06/07 05:43:07;;;;;;;33.13;30.00;;;14.40;99.90;;;;;;5093954;28;20566;-80
2022/06/07 05:45:39;;;;;;;31.83;28.73;;;14.40;99.90;;;;;;5093750;28;20476;-78
2022/06/07 05:48:14;;;;;;;31.27;28.07;;;14.40;99.90;;;;;;5095364;28;20439;-81
2022/06/07 05:50:50;;;;;;;30.90;27.80;;;14.40;99.90;;;;;;5095549;28;20464;-80
2022/06/07 05:53:23;;;;;;;31.10;27.80;;;14.50;99.90;;;;;;5096059;28;20463;-80
2022/06/07 05:55:52;;;;;;;30.10;27.00;;;14.50;99.90;;;;;;5095953;28;20556;-80
2022/06/07 05:58:22;;;;;;;28.27;25.50;;;14.50;99.90;;;;;;5094670;28;20471;-80
2022/06/07 06:00:51;;;;;;;29.47;25.73;;;14.50;99.90;;;;;;5094488;28;20453;-78
2022/06/07 06:03:25;;;;;;;24.83;22.13;;;14.60;99.90;;;;;;5094609;28;20484;-79
2022/06/07 06:05:54;;;;;;;34.70;31.20;;;14.60;99.90;;;;;;5094675;28;20510;-81
2022/06/07 06:11:20;;;;;;;33.40;30.13;;;14.70;99.90;;;;;;5095416;28;20991;-79
2022/06/07 06:14:13;;;;;;;33.27;30.17;;;14.70;99.90;;;;;;5094257;28;20464;-79
2022/06/07 06:16:48;;;;;;;28.80;24.83;;;14.80;99.90;;;;;;5093850;28;20489;-81
2022/06/07 06:19:26;;;;;;;28.60;25.67;;;14.80;99.90;;;;;;5097444;28;20462;-81
2022/06/07 06:21:55;;;;;;;28.60;25.47;;;14.80;99.90;;;;;;5097592;28;20470;-79
2022/06/07 06:24:25;;;;;;;31.80;28.60;;;14.90;99.90;;;;;;5097794;28;20498;-81
2022/06/07 06:26:56;;;;;;;30.77;27.57;;;14.90;99.90;;;;;;5097786;28;20442;-80
2022/06/07 06:29:30;;;;;;;33.10;29.60;;;14.90;99.90;;;;;;5096983;28;20436;-80
2022/06/07 06:31:59;;;;;;;33.37;30.30;;;15.00;99.90;;;;;;5097519;28;20431;-81
2022/06/07 06:34:29;;;;;;;33.23;30.20;;;15.00;99.90;;;;;;5097732;28;20562;-81
2022/06/07 06:37:01;;;;;;;32.10;28.90;;;15.00;99.90;;;;;;5097907;28;20479;-79
2022/06/07 06:39:34;;;;;;;32.63;29.50;;;15.00;99.90;;;;;;5097723;28;20753;-80
2022/06/07 06:42:02;;;;;;;33.33;29.93;;;15.10;99.90;;;;;;5097296;28;20882;-80
2022/06/07 06:44:45;;;;;;;33.50;30.07;;;15.10;99.90;;;;;;5096661;28;20430;-81
2022/06/07 06:47:15;;;;;;;31.67;28.57;;;15.10;99.90;;;;;;5096801;28;20454;-80
2022/06/07 06:49:43;;;;;;;31.30;28.43;;;15.20;99.90;;;;;;5096762;28;20539;-80
2022/06/07 06:52:12;;;;;;;30.93;28.13;;;15.20;99.90;;;;;;5096348;28;20521;-80
2022/06/07 06:54:42;;;;;;;31.37;28.47;;;15.20;99.90;;;;;;5096497;28;20464;-79
2022/06/07 06:57:19;;;;;;;30.63;27.73;;;15.30;99.90;;;;;;5096726;28;20433;-79
2022/06/07 06:59:58;;;;;;;31.40;28.60;;;15.30;99.90;;;;;;5096520;28;20509;-78
2022/06/07 07:02:27;;;;;;;31.73;28.90;;;15.40;99.90;;;;;;5095645;28;20469;-78
2022/06/07 07:05:05;;;;;;;29.90;27.20;;;15.40;99.90;;;;;;5096009;28;20460;-79
2022/06/07 07:07:36;;;;;;;31.07;28.40;;;15.40;99.90;;;;;;5096107;28;20448;-80
2022/06/07 07:10:06;;;;;;;27.93;25.40;;;15.50;99.90;;;;;;5095826;28;20960;-79
2022/06/07 07:12:35;;;;;;;26.30;23.80;;;15.60;99.90;;;;;;5095518;28;20438;-79
2022/06/07 07:15:13;;;;;;;28.27;25.67;;;15.60;99.90;;;;;;5095212;28;20443;-76
2022/06/07 07:17:51;;;;;;;26.27;23.90;;;15.70;99.90;;;;;;5095851;28;20440;-78
2022/06/07 07:20:21;;;;;;;25.77;23.20;;;15.70;99.90;;;;;;5097137;28;20432;-80
2022/06/07 07:22:52;;;;;;;24.33;21.93;;;15.80;99.90;;;;;;5097647;28;20415;-78
2022/06/07 07:25:21;;;;;;;26.03;23.73;;;15.80;99.90;;;;;;5096986;28;20450;-78
2022/06/07 07:27:51;;;;;;;26.47;24.17;;;15.80;99.90;;;;;;5096262;28;20461;-78
2022/06/07 07:30:25;;;;;;;26.97;24.37;;;15.90;99.90;;;;;;5098153;28;20495;-78
2022/06/07 07:32:53;;;;;;;25.40;23.00;;;15.90;99.90;;;;;;5106984;28;20464;-80
2022/06/07 07:35:22;;;;;;;27.83;25.07;;;15.80;99.90;;;;;;5113177;28;20469;-80
2022/06/07 07:37:58;;;;;;;27.80;25.20;;;15.80;99.90;;;;;;5113881;28;20446;-80
2022/06/07 07:40:26;;;;;;;27.67;25.00;;;15.80;99.90;;;;;;5110806;28;20444;-81
2022/06/07 07:42:57;;;;;;;27.20;24.60;;;15.80;99.90;;;;;;5112387;28;20440;-82
2022/06/07 07:45:37;;;;;;;28.87;26.17;;;15.80;99.90;;;;;;5110137;28;20442;-81
2022/06/07 07:48:11;;;;;;;27.77;25.07;;;15.80;99.90;;;;;;5111953;28;20411;-82
2022/06/07 07:50:43;;;;;;;27.77;25.27;;;15.80;99.90;;;;;;5111471;28;20484;-80
2022/06/07 07:53:13;;;;;;;27.47;24.97;;;15.80;99.90;;;;;;5111721;28;20496;-81
2022/06/07 07:55:44;;;;;;;26.93;24.47;;;15.80;99.90;;;;;;5110546;28;20467;-81
2022/06/07 07:58:13;;;;;;;28.27;25.50;;;15.80;99.90;;;;;;5111571;28;20472;-81
2022/06/07 08:00:44;;;;;;;26.70;24.10;;;15.80;99.90;;;;;;5109674;28;20447;-80
2022/06/07 08:03:13;;;;;;;27.13;24.43;;;15.90;99.90;;;;;;5110834;28;20479;-82
2022/06/07 08:05:47;;;;;;;27.27;24.57;;;15.90;99.90;;;;;;5111050;28;20467;-82
2022/06/07 08:08:15;;;;;;;26.20;23.60;;;15.90;99.90;;;;;;5111266;28;20456;-81
2022/06/07 08:10:43;;;;;;;26.50;23.93;;;15.90;99.90;;;;;;5112095;28;20457;-80
2022/06/07 08:13:12;;;;;;;27.80;25.30;;;16.00;99.90;;;;;;5109284;28;20438;-81
2022/06/07 08:15:40;;;;;;;28.00;25.20;;;16.00;99.90;;;;;;5097064;28;20499;-81
2022/06/07 08:18:10;;;;;;;25.93;23.60;;;16.00;99.90;;;;;;5096871;28;20478;-81
2022/06/07 08:20:39;;;;;;;26.97;24.17;;;16.00;99.90;;;;;;5097828;28;20417;-81
2022/06/07 08:23:10;;;;;;;27.63;24.80;;;16.00;99.90;;;;;;5095556;28;20458;-82
2022/06/07 08:25:39;;;;;;;27.60;24.93;;;16.10;99.90;;;;;;5095257;28;20551;-81
2022/06/07 08:28:09;;;;;;;24.47;21.97;;;16.10;99.90;;;;;;5095389;28;20443;-81
2022/06/07 08:30:38;;;;;;;26.17;23.87;;;16.20;99.90;;;;;;5095138;28;20935;-83
2022/06/07 08:38:37;;;;;;;21.97;19.90;;;16.50;99.90;;;;;;5094695;28;20530;-81
2022/06/07 08:41:06;;;;;;;23.03;20.93;;;16.70;99.90;;;;;;5094369;28;20844;-82
2022/06/07 08:43:35;;;;;;;19.00;17.40;;;16.90;99.90;;;;;;5094892;28;20576;-83
2022/06/07 08:46:03;;;;;;;20.43;18.70;;;17.00;99.90;;;;;;5096146;28;20524;-82
2022/06/07 08:48:33;;;;;;;21.57;19.57;;;17.20;99.90;;;;;;5095819;28;20428;-80
2022/06/07 08:51:15;;;;;;;20.87;18.97;;;17.30;99.90;;;;;;5094859;28;20442;-83
2022/06/07 08:53:48;;;;;;;19.83;17.93;;;17.30;99.90;;;;;;5096169;28;20466;-82
2022/06/07 08:56:19;;;;;;;20.20;18.30;;;17.40;99.90;;;;;;5096222;28;20410;-79
2022/06/07 08:58:51;;;;;;;20.33;18.53;;;17.30;99.90;;;;;;5095934;28;20436;-80
2022/06/07 09:01:28;;;;;;;21.50;16.80;;;17.30;99.90;;;;;;5094461;28;20407;-80
2022/06/07 09:04:09;;;;;;;21.67;19.67;;;17.20;99.90;;;;;;5095120;28;20447;-79
2022/06/07 09:06:41;;;;;;;21.20;19.40;;;17.20;99.90;;;;;;5094610;28;20415;-79
2022/06/07 09:09:11;;;;;;;23.27;19.93;;;17.20;99.90;;;;;;5094459;28;20896;-80
2022/06/07 09:14:33;;;;;;;18.00;16.30;;;17.10;99.90;;;;;;5093429;28;20872;-80
2022/06/07 09:17:09;;;;;;;20.93;18.90;;;17.10;99.90;;;;;;5094664;28;20395;-80
2022/06/07 09:19:39;;;;;;;20.90;19.10;;;17.10;99.90;;;;;;5094261;28;20457;-82
2022/06/07 09:22:16;;;;;;;20.20;18.20;;;17.10;99.90;;;;;;5096551;28;20805;-83
2022/06/07 09:24:53;;;;;;;19.20;17.30;;;17.10;99.90;;;;;;5094740;28;20538;-82
2022/06/07 09:27:26;;;;;;;18.30;16.23;;;17.00;99.90;;;;;;5095973;28;20395;-82
2022/06/07 09:29:56;;;;;;;17.27;15.70;;;17.00;99.90;;;;;;5096038;28;20486;-82
2022/06/07 09:32:27;;;;;;;16.37;14.77;;;17.00;99.90;;;;;;5094531;28;20445;-83
2022/06/07 09:34:58;;;;;;;16.53;15.03;;;16.90;99.90;;;;;;5095641;28;20798;-79
2022/06/07 09:37:34;;;;;;;15.03;13.37;;;16.90;99.90;;;;;;5094144;28;20437;-81
2022/06/07 09:40:23;;;;;;;15.80;14.10;;;16.90;99.90;;;;;;5094936;28;20414;-81
2022/06/07 09:42:55;;;;;;;13.67;12.37;;;16.80;99.90;;;;;;5094230;28;20411;-84
2022/06/07 09:45:28;;;;;;;12.80;11.60;;;16.80;99.90;;;;;;5094492;28;20464;-79
2022/06/07 09:47:57;;;;;;;13.00;11.63;;;16.80;99.90;;;;;;5096031;28;20429;-80
2022/06/07 09:50:32;;;;;;;14.53;13.03;;;16.70;99.90;;;;;;5095826;28;20862;-81
2022/06/07 09:53:09;;;;;;;13.03;11.73;;;16.70;99.90;;;;;;5095660;28;20486;-80
2022/06/07 09:55:42;;;;;;;13.43;12.07;;;16.70;99.90;;;;;;5098546;28;20441;-83
2022/06/07 09:58:32;;;;;;;12.40;11.10;;;16.70;99.90;;;;;;5098331;28;20439;-79
2022/06/07 10:01:06;;;;;;;12.33;11.13;;;16.80;99.90;;;;;;5098175;28;20497;-81
2022/06/07 10:03:43;;;;;;;11.53;9.77;;;16.80;99.90;;;;;;5099796;28;20544;-81
2022/06/07 10:06:18;;;;;;;11.30;9.53;;;16.80;99.90;;;;;;5098473;28;20421;-80
2022/06/07 10:09:15;;;;;;;10.80;9.40;;;16.80;99.90;;;;;;5099485;28;20429;-79
2022/06/07 10:11:56;;;;;;;12.03;9.40;;;16.90;99.90;;;;;;5098974;28;20801;-81
2022/06/07 10:14:32;;;;;;;9.83;8.43;;;16.90;99.90;;;;;;5101236;28;20466;-80
2022/06/07 10:17:31;;;;;;;10.40;9.30;;;17.00;99.90;;;;;;5097698;28;20481;-80
2022/06/07 10:20:08;;;;;;;9.50;8.00;;;17.00;99.90;;;;;;5098590;28;20410;-80
2022/06/07 10:22:51;;;;;;;11.00;8.17;;;17.00;99.90;;;;;;5098551;28;20411;-81
2022/06/07 10:25:29;;;;;;;9.90;8.27;;;17.00;99.90;;;;;;5097834;28;20464;-82
2022/06/07 10:28:05;;;;;;;9.77;7.90;;;17.00;99.90;;;;;;5097292;28;20415;-80
2022/06/07 10:30:40;;;;;;;8.43;7.13;;;17.00;99.90;;;;;;5099126;28;20506;-82
2022/06/07 10:33:37;;;;;;;9.90;8.10;;;17.00;99.90;;;;;;5098242;28;20983;-81
2022/06/07 10:36:19;;;;;;;11.67;8.70;;;17.10;99.90;;;;;;5097322;28;20427;-80
2022/06/07 10:38:58;;;;;;;10.27;8.27;;;17.10;99.90;;;;;;5098145;28;20403;-80
2022/06/07 10:41:33;;;;;;;11.53;9.73;;;17.10;99.90;;;;;;5098636;28;20424;-81
2022/06/07 10:44:10;;;;;;;10.00;8.27;;;17.10;99.90;;;;;;5096735;28;20876;-80
2022/06/07 10:46:42;;;;;;;11.37;8.43;;;17.10;99.90;;;;;;5098470;28;20432;-82
2022/06/07 10:49:18;;;;;;;9.37;7.87;;;17.20;99.90;;;;;;5098065;28;20410;-79
2022/06/07 10:54:55;;;;;;;9.60;8.50;;;17.30;99.90;;;;;;5097699;28;20461;-80
2022/06/07 10:57:34;;;;;;;11.83;9.60;;;17.30;99.90;;;;;;5097182;28;20960;-80
2022/06/07 11:00:18;;;;;;;11.70;10.40;;;17.30;99.90;;;;;;5097734;28;20424;-80
2022/06/07 11:02:53;;;;;;;10.70;8.90;;;17.30;99.90;;;;;;5096535;28;20518;-79
2022/06/07 11:11:11;;;;;;;12.30;10.90;;;17.40;99.90;;;;;;5099447;28;20436;-82
2022/06/07 11:13:49;;;;;;;11.47;9.93;;;17.50;99.90;;;;;;5098405;28;20537;-83
2022/06/07 11:16:27;;;;;;;10.40;9.30;;;17.60;99.90;;;;;;5098929;28;20399;-81
2022/06/07 11:18:55;;;;;;;12.40;9.87;;;17.60;99.90;;;;;;5098858;28;20429;-80
2022/06/07 11:21:30;;;;;;;12.00;10.80;;;17.60;99.90;;;;;;5096435;28;20510;-82
2022/06/07 11:24:06;;;;;;;10.57;9.13;;;17.60;99.90;;;;;;5098614;28;20473;-80
2022/06/07 11:27:00;;;;;;;11.37;8.70;;;17.60;99.90;;;;;;5096912;28;20436;-80
2022/06/07 11:29:32;;;;;;;9.43;8.20;;;17.70;99.90;;;;;;5098462;28;20403;-80
2022/06/07 11:32:02;;;;;;;9.40;8.13;;;17.70;99.90;;;;;;5096851;28;20421;-81
2022/06/07 11:34:34;;;;;;;9.80;8.60;;;17.70;99.90;;;;;;5096369;28;20454;-82
2022/06/07 11:37:23;;;;;;;10.70;9.60;;;17.70;99.90;;;;;;5097727;28;20428;-82
2022/06/07 11:39:54;;;;;;;10.50;8.73;;;17.70;99.90;;;;;;5096036;28;20459;-81
2022/06/07 11:42:30;;;;;;;11.30;9.47;;;17.70;99.90;;;;;;5095939;28;20773;-80
2022/06/07 11:45:16;;;;;;;10.53;9.43;;;17.70;99.90;;;;;;5095532;28;20546;-82
2022/06/07 11:48:22;;;;;;;10.80;9.70;;;17.70;99.90;;;;;;5095325;28;20494;-82
2022/06/07 11:51:16;;;;;;;12.67;8.90;;;17.70;99.90;;;;;;5065611;28;20517;-79
2022/06/07 11:53:53;;;;;;;11.87;9.10;;;17.80;99.90;;;;;;5095192;28;20522;-80
2022/06/07 11:56:29;;;;;;;10.30;9.20;;;17.80;99.90;;;;;;5095546;28;20755;-80
2022/06/07 11:59:01;;;;;;;9.80;8.77;;;17.80;99.90;;;;;;5095706;28;20443;-81
2022/06/07 12:01:40;;;;;;;11.83;9.40;;;17.80;99.90;;;;;;5096459;28;20464;-81
2022/06/07 12:04:30;;;;;;;10.73;9.37;;;17.80;99.90;;;;;;5094939;28;20467;-80
2022/06/07 12:07:16;;;;;;;10.30;8.53;;;17.80;99.90;;;;;;5095367;28;20494;-81
2022/06/07 12:09:49;;;;;;;10.20;9.20;;;17.80;99.90;;;;;;5095070;28;20498;-82
2022/06/07 12:12:24;;;;;;;13.57;9.10;;;17.80;99.90;;;;;;5095002;28;20463;-82
2022/06/07 12:15:00;;;;;;;10.20;8.53;;;17.80;99.90;;;;;;5095119;28;20465;-81
2022/06/07 12:17:31;;;;;;;9.77;8.50;;;17.90;99.90;;;;;;5094908;28;20505;-82
2022/06/07 12:20:00;;;;;;;10.23;9.13;;;18.00;99.90;;;;;;5096115;28;20948;-82
2022/06/07 12:22:41;;;;;;;10.60;8.80;;;18.10;99.90;;;;;;5094587;28;20851;-82
2022/06/07 12:25:17;;;;;;;9.60;8.60;;;18.10;99.90;;;;;;5096209;28;20456;-82
2022/06/07 12:27:48;;;;;;;10.40;8.70;;;18.10;99.90;;;;;;5095997;28;20432;-80
2022/06/07 12:30:32;;;;;;;9.83;8.53;;;18.10;99.90;;;;;;5095245;28;20448;-80
2022/06/07 12:33:15;;;;;;;12.30;9.17;;;18.10;99.90;;;;;;5095373;28;20436;-78
2022/06/07 12:35:54;;;;;;;10.67;8.50;;;18.00;99.90;;;;;;5096504;28;20541;-81
2022/06/07 12:38:22;;;;;;;12.43;9.20;;;18.00;99.90;;;;;;5094043;28;20446;-80
2022/06/07 12:40:53;;;;;;;12.83;9.07;;;17.90;99.90;;;;;;5096010;28;20444;-80
2022/06/07 12:43:25;;;;;;;11.60;8.47;;;18.00;99.90;;;;;;5095287;28;20521;-82
2022/06/07 12:46:01;;;;;;;13.30;10.77;;;18.00;99.90;;;;;;5095912;28;20467;-80
2022/06/07 12:48:38;;;;;;;10.27;8.67;;;18.00;99.90;;;;;;5094298;28;20933;-80
2022/06/07 12:51:27;;;;;;;13.20;9.50;;;17.90;99.90;;;;;;5094004;28;20448;-81
2022/06/07 12:54:01;;;;;;;11.50;8.90;;;17.90;99.90;;;;;;5093833;28;20457;-80
2022/06/07 12:56:32;;;;;;;10.50;9.33;;;17.90;99.90;;;;;;5095255;28;20410;-79
2022/06/07 12:59:01;;;;;;;12.33;8.50;;;17.90;99.90;;;;;;5095451;28;20435;-80
2022/06/07 13:01:33;;;;;;;11.20;9.10;;;17.90;99.90;;;;;;5093454;28;20426;-82
2022/06/07 13:04:23;;;;;;;10.90;8.40;;;17.80;99.90;;;;;;5093721;28;20488;-80
2022/06/07 13:07:16;;;;;;;11.40;9.10;;;17.80;99.90;;;;;;5093838;28;20446;-81
2022/06/07 13:10:07;;;;;;;11.70;9.10;;;17.90;99.90;;;;;;5093269;28;20419;-81
2022/06/07 13:12:38;;;;;;;12.07;9.10;;;17.90;99.90;;;;;;5093990;28;20458;-80
2022/06/07 13:15:14;;;;;;;11.70;9.57;;;17.90;99.90;;;;;;5093563;28;20446;-81
2022/06/07 13:17:56;;;;;;;11.07;9.70;;;18.00;99.90;;;;;;5093211;28;20406;-81
2022/06/07 13:20:30;;;;;;;11.27;10.10;;;18.00;99.90;;;;;;5093677;28;20521;-82
2022/06/07 13:22:59;;;;;;;13.33;9.80;;;18.00;99.90;;;;;;5093973;28;20791;-82
2022/06/07 13:25:29;;;;;;;12.50;10.00;;;18.00;99.90;;;;;;5094204;28;20468;-80
2022/06/07 13:28:02;;;;;;;13.13;10.80;;;18.00;99.90;;;;;;5093240;28;20419;-81